Time;durP1;ratioP1;P1;durP2;ratioP2;P2;SDS_P1;SDS_P2;PMS_P1;PMS_P2;Temp;Humidity;BMP_temperature;BMP_pressure;BME280_temperature;BME280_humidity;BME280_pressure;Samples;Min_cycle;Max_cycle;Signal;HPM_P1;HPM_P2
2023/03/05 00:00:53;;;;;;;9.80;1.17;;;;;;;-146.25;100.00;52420.91;2105363;28;37299;-74
2023/03/05 00:01:55;;;;;;;5.53;0.60;;;;;;;-146.25;100.00;52366.16;2104975;28;35058;-74
2023/03/05 00:02:59;;;;;;;9.82;0.70;;;;;;;-146.25;100.00;52429.03;2104991;28;36791;-74
2023/03/05 00:04:04;;;;;;;7.00;0.98;;;;;;;-146.25;100.00;52394.56;2105185;28;34880;-74
2023/03/05 00:05:06;;;;;;;8.30;0.70;;;;;;;-146.25;100.00;52424.97;2104039;28;37683;-74
2023/03/05 00:06:08;;;;;;;6.75;0.63;;;;;;;-146.25;100.00;52404.69;2104632;28;32863;-74
2023/03/05 00:07:11;;;;;;;13.07;1.02;;;;;;;-146.25;100.00;52396.59;2105205;28;39180;-74
2023/03/05 00:08:12;;;;;;;5.15;0.50;;;;;;;-146.25;100.00;52416.84;2104953;28;35233;-74
2023/03/05 00:09:14;;;;;;;6.07;0.63;;;;;;;-146.25;100.00;52418.88;2104715;28;33746;-74
2023/03/05 00:10:16;;;;;;;8.98;0.70;;;;;;;-146.25;100.00;52388.47;2104742;28;32360;-74
2023/03/05 00:11:19;;;;;;;8.05;0.73;;;;;;;-146.25;100.00;52392.53;2104939;28;36614;-74
2023/03/05 00:12:21;;;;;;;5.72;0.63;;;;;;;-146.25;100.00;52412.81;2105262;28;26649;-74
2023/03/05 00:13:23;;;;;;;4.80;0.50;;;;;;;-146.25;100.00;52422.94;2104527;28;35866;-74
2023/03/05 00:14:26;;;;;;;4.10;1.00;;;;;;;-146.25;100.00;52402.66;2105745;28;20048;-74
2023/03/05 00:15:27;;;;;;;7.35;0.90;;;;;;;-146.25;100.00;52420.91;2104564;28;37736;-74
2023/03/05 00:16:30;;;;;;;8.15;1.00;;;;;;;-146.25;100.00;52400.63;2105320;28;32793;-74
2023/03/05 00:17:31;;;;;;;11.57;1.13;;;;;;;-146.25;100.00;52406.72;2105385;28;30269;-74
2023/03/05 00:18:34;;;;;;;8.02;0.90;;;;;;;-146.25;100.00;52418.88;2104115;28;37100;-74
2023/03/05 00:19:35;;;;;;;9.32;1.45;;;;;;;-146.25;100.00;52392.53;2105379;28;33929;-74
2023/03/05 00:20:37;;;;;;;7.05;1.00;;;;;;;-146.25;100.00;52382.38;2104987;28;37968;-73
2023/03/05 00:21:41;;;;;;;8.75;1.05;;;;;;;-146.25;100.00;52422.94;2105049;28;21117;-73
2023/03/05 00:22:43;;;;;;;9.15;1.00;;;;;;;-146.25;100.00;52394.56;2105062;28;32250;-74
2023/03/05 00:23:45;;;;;;;11.82;1.45;;;;;;;-146.25;100.00;52412.81;2104768;28;38210;-73
2023/03/05 00:24:50;;;;;;;8.93;1.00;;;;;;;-146.25;100.00;52396.59;2104310;28;35794;-73
2023/03/05 00:25:52;;;;;;;5.57;1.10;;;;;;;-146.25;100.00;52424.97;2104243;28;35327;-74
2023/03/05 00:26:54;;;;;;;8.50;1.08;;;;;;;-146.25;100.00;52410.78;2104400;28;20877;-74
2023/03/05 00:27:56;;;;;;;7.68;0.68;;;;;;;-146.25;100.00;52422.94;2096215;28;20946;-73
2023/03/05 00:28:59;;;;;;;10.15;1.05;;;;;;;-146.25;100.00;52408.75;2088230;28;20153;-73
2023/03/05 00:30:01;;;;;;;9.63;1.55;;;;;;;-146.25;100.00;52424.97;2096176;28;35141;-73
2023/03/05 00:31:04;;;;;;;6.63;0.82;;;;;;;-146.25;100.00;52427.00;2096585;28;20041;-74
2023/03/05 00:32:06;;;;;;;15.00;1.10;;;;;;;-146.25;100.00;52402.66;2096266;28;26409;-73
2023/03/05 00:33:11;;;;;;;8.35;1.10;;;;;;;-146.25;100.00;52402.66;2104968;28;25786;-73
2023/03/05 00:34:16;;;;;;;14.52;1.35;;;;;;;-146.25;100.00;52392.53;2096102;28;22318;-73
2023/03/05 00:35:20;;;;;;;12.57;1.52;;;;;;;-146.25;100.00;52396.59;2089470;28;20111;-73
2023/03/05 00:36:25;;;;;;;8.35;1.25;;;;;;;-146.25;100.00;52408.75;2095879;28;20045;-73
2023/03/05 00:37:26;;;;;;;10.73;1.48;;;;;;;-146.25;100.00;52388.47;2096553;28;28722;-73
2023/03/05 00:38:30;;;;;;;7.65;1.50;;;;;;;-146.25;100.00;52414.84;2105615;28;20932;-73
2023/03/05 00:39:32;;;;;;;7.53;1.52;;;;;;;-146.25;100.00;52412.81;2095915;28;22331;-74
2023/03/05 00:40:40;;;;;;;10.43;1.60;;;;;;;-146.25;100.00;52435.09;2096281;28;20053;-73
2023/03/05 00:41:42;;;;;;;8.02;1.50;;;;;;;-146.25;100.00;52429.03;2105643;28;24383;-73
2023/03/05 00:42:47;;;;;;;8.13;1.63;;;;;;;-146.25;100.00;52396.59;2095943;28;25806;-73
2023/03/05 00:43:49;;;;;;;9.05;1.75;;;;;;;-146.25;100.00;52402.66;2096991;28;20045;-73
2023/03/05 00:44:50;;;;;;;9.88;1.35;;;;;;;-146.25;100.00;52418.88;2095858;28;34810;-73
2023/03/05 00:45:52;;;;;;;11.35;1.52;;;;;;;-146.25;100.00;52416.84;2096469;28;27328;-73
2023/03/05 00:46:54;;;;;;;8.13;1.13;;;;;;;-146.25;100.00;52412.81;2105087;28;32434;-73
2023/03/05 00:47:57;;;;;;;6.72;1.20;;;;;;;-146.25;100.00;52390.50;2104311;28;26950;-73
2023/03/05 00:49:01;;;;;;;8.20;1.67;;;;;;;-146.25;100.00;52445.25;2104669;28;27521;-73
2023/03/05 00:50:05;;;;;;;6.65;1.45;;;;;;;-146.25;100.00;52394.56;2104725;28;32470;-73
2023/03/05 00:51:08;;;;;;;7.93;1.30;;;;;;;-146.25;100.00;52424.97;2104294;28;39525;-73
2023/03/05 00:52:09;;;;;;;10.35;1.65;;;;;;;-146.25;100.00;52427.00;2105135;28;26906;-73
2023/03/05 00:53:11;;;;;;;9.68;1.88;;;;;;;-146.25;100.00;52412.81;2104702;28;31927;-73
2023/03/05 00:54:16;;;;;;;8.52;1.60;;;;;;;-146.25;100.00;52372.25;2105158;28;23576;-73
2023/03/05 00:55:21;;;;;;;8.07;2.00;;;;;;;-146.25;100.00;52398.59;2105129;28;20896;-73
2023/03/05 00:56:22;;;;;;;11.45;2.28;;;;;;;-146.25;100.00;52406.72;2105068;28;30885;-73
2023/03/05 00:57:24;;;;;;;9.02;2.10;;;;;;;-146.25;100.00;52364.13;2095906;28;29739;-73
2023/03/05 00:58:26;;;;;;;8.20;2.25;;;;;;;-146.25;100.00;52457.41;2096028;28;28441;-73
2023/03/05 00:59:30;;;;;;;13.00;2.80;;;;;;;-146.25;100.00;52408.75;2095642;28;34834;-73
2023/03/05 01:00:34;;;;;;;10.77;2.60;;;;;;;-146.25;100.00;52433.06;2105446;28;20025;-73
2023/03/05 01:01:36;;;;;;;13.68;3.20;;;;;;;-146.25;100.00;52435.09;2105165;28;20028;-73
2023/03/05 01:02:38;;;;;;;8.15;2.70;;;;;;;-146.25;100.00;52431.06;2105328;28;21169;-73
2023/03/05 01:03:39;;;;;;;10.57;2.83;;;;;;;-146.25;100.00;52396.59;2105425;28;35105;-73
2023/03/05 01:04:44;;;;;;;9.82;2.65;;;;;;;-146.25;100.00;52414.84;2095555;28;36931;-73
2023/03/05 01:05:46;;;;;;;11.63;2.85;;;;;;;-146.25;100.00;52388.47;2095974;28;29945;-73
2023/03/05 01:06:48;;;;;;;13.55;1.80;;;;;;;-146.25;100.00;52396.59;2105385;28;25402;-73
2023/03/05 01:07:54;;;;;;;12.15;2.10;;;;;;;-146.25;100.00;52402.66;2096179;28;20072;-73
2023/03/05 01:08:55;;;;;;;8.02;1.58;;;;;;;-146.25;100.00;52437.13;2097392;28;21608;-73
2023/03/05 01:09:57;;;;;;;8.02;1.50;;;;;;;-146.25;100.00;52412.81;2105221;28;20890;-74
2023/03/05 01:11:00;;;;;;;11.25;1.92;;;;;;;-146.25;100.00;52441.19;2105009;28;20032;-74
2023/03/05 01:12:01;;;;;;;16.23;1.40;;;;;;;-146.25;100.00;52390.50;2105101;28;20045;-73
2023/03/05 01:13:03;;;;;;;9.02;1.38;;;;;;;-146.25;100.00;52396.59;2096220;28;20052;-73
2023/03/05 01:14:05;;;;;;;6.25;1.35;;;;;;;-146.25;100.00;52435.09;2087963;28;20122;-74
2023/03/05 01:15:07;;;;;;;8.23;1.55;;;;;;;-146.25;100.00;52414.84;2087398;28;34887;-73
2023/03/05 01:16:13;;;;;;;10.18;1.63;;;;;;;-146.25;100.00;52412.81;2096026;28;33449;-74
2023/03/05 01:17:14;;;;;;;5.35;1.20;;;;;;;-146.25;100.00;52437.13;2095768;28;20598;-73
2023/03/05 01:18:18;;;;;;;10.48;1.58;;;;;;;-146.25;100.00;52410.78;2096174;28;20812;-73
2023/03/05 01:19:20;;;;;;;8.05;1.27;;;;;;;-146.25;100.00;52416.84;2096319;28;20040;-73
2023/03/05 01:20:24;;;;;;;7.07;1.40;;;;;;;-146.25;100.00;52406.72;2087345;28;26093;-73
2023/03/05 01:21:25;;;;;;;10.57;1.45;;;;;;;-146.25;100.00;52412.81;2096046;28;25438;-73
2023/03/05 01:22:30;;;;;;;13.55;1.80;;;;;;;-146.25;100.00;52420.91;2105209;28;20040;-73
2023/03/05 01:23:36;;;;;;;7.90;1.38;;;;;;;-146.25;100.00;52388.47;2088101;28;20041;-74
2023/03/05 01:24:37;;;;;;;8.45;1.42;;;;;;;-146.25;100.00;52424.97;2096365;28;20961;-73
2023/03/05 01:25:40;;;;;;;6.38;1.40;;;;;;;-146.25;100.00;52380.38;2104687;28;23619;-74
2023/03/05 01:26:42;;;;;;;5.68;0.98;;;;;;;-146.25;100.00;52435.09;2096372;28;20076;-73
2023/03/05 01:27:45;;;;;;;5.82;1.00;;;;;;;-146.25;100.00;52408.75;2096152;28;32169;-74
2023/03/05 01:28:47;;;;;;;5.78;0.80;;;;;;;-146.25;100.00;52406.72;2104820;28;31652;-73
2023/03/05 01:29:48;;;;;;;5.72;0.82;;;;;;;-146.25;100.00;52388.47;2104424;28;36109;-74
2023/03/05 01:30:50;;;;;;;7.03;1.02;;;;;;;-146.25;100.00;52414.84;2105350;28;20920;-73
2023/03/05 01:31:52;;;;;;;5.82;0.80;;;;;;;-146.25;100.00;52416.84;2105195;28;24682;-73
2023/03/05 01:32:59;;;;;;;5.95;0.80;;;;;;;-146.25;100.00;52408.75;2105224;28;20032;-73
2023/03/05 01:34:01;;;;;;;6.65;0.60;;;;;;;-146.25;100.00;52453.34;2095978;28;22610;-74
2023/03/05 01:35:05;;;;;;;10.48;1.30;;;;;;;-146.25;100.00;52416.84;2095471;28;24986;-73
2023/03/05 01:36:15;;;;;;;9.90;1.02;;;;;;;-146.25;100.00;52465.53;2104123;28;21024;-75
2023/03/05 01:37:17;;;;;;;4.57;0.85;;;;;;;-146.25;100.00;52410.78;2104963;28;20080;-74
2023/03/05 01:38:21;;;;;;;4.35;0.80;;;;;;;-146.25;100.00;52414.84;2105020;28;20048;-74
2023/03/05 01:39:23;;;;;;;6.50;1.13;;;;;;;-146.25;100.00;52402.66;2104391;28;29972;-74
2023/03/05 01:40:28;;;;;;;7.20;0.80;;;;;;;-146.25;100.00;52437.13;2105076;28;26774;-74
2023/03/05 01:41:32;;;;;;;6.43;0.88;;;;;;;-146.25;100.00;52404.69;2095910;28;20041;-74
2023/03/05 01:42:34;;;;;;;6.85;0.80;;;;;;;-146.25;100.00;52437.13;2096537;28;20037;-74
2023/03/05 01:43:36;;;;;;;6.15;1.10;;;;;;;-146.25;100.00;52422.94;2104606;28;30553;-74
2023/03/05 01:44:38;;;;;;;9.75;1.20;;;;;;;-146.25;100.00;52410.78;2104663;28;23707;-74
2023/03/05 01:46:21;;;;;;;10.13;1.50;;;;;;;-146.25;100.00;52445.25;2105009;28;26039;-74
2023/03/05 01:47:23;;;;;;;5.07;0.88;;;;;;;-146.25;100.00;52433.06;2104844;28;20133;-74
2023/03/05 01:48:25;;;;;;;8.85;1.35;;;;;;;-146.25;100.00;52400.63;2105058;28;29365;-74
2023/03/05 01:49:35;;;;;;;4.28;1.23;;;;;;;-146.25;100.00;52433.06;2105388;28;20033;-74
2023/03/05 01:50:37;;;;;;;9.85;1.52;;;;;;;-146.25;100.00;52412.81;2104067;28;20932;-74
2023/03/05 01:51:48;;;;;;;10.07;1.30;;;;;;;-146.25;100.00;52388.47;2096192;28;20896;-75
2023/03/05 01:53:01;;;;;;;5.78;1.48;;;;;;;-146.25;100.00;52420.91;2097242;28;20264;-74
2023/03/05 01:54:06;;;;;;;7.45;1.17;;;;;;;-146.25;100.00;52424.97;2098135;28;32394;-74
2023/03/05 01:55:21;;;;;;;9.57;1.55;;;;;;;-146.25;100.00;52420.91;2103982;28;21515;-73
2023/03/05 01:56:25;;;;;;;6.68;1.23;;;;;;;-146.25;100.00;52424.97;2112637;28;33639;-73
2023/03/05 01:57:35;;;;;;;7.50;1.45;;;;;;;-146.25;100.00;52410.78;2104563;28;20052;-74
2023/03/05 01:58:38;;;;;;;6.85;1.35;;;;;;;-146.25;100.00;52424.97;2097571;28;20041;-73
2023/03/05 01:59:44;;;;;;;11.10;1.58;;;;;;;-146.25;100.00;52394.56;2104666;28;22913;-73
2023/03/05 02:00:49;;;;;;;8.85;1.75;;;;;;;-146.25;100.00;52435.09;2104091;28;24353;-74
2023/03/05 02:01:55;;;;;;;7.57;1.38;;;;;;;-146.25;100.00;52453.34;2095790;28;29318;-73
2023/03/05 02:03:03;;;;;;;10.15;1.55;;;;;;;-146.25;100.00;52447.28;2095678;28;33707;-73
2023/03/05 02:04:08;;;;;;;7.07;1.55;;;;;;;-146.25;100.00;52416.84;2098899;28;20041;-73
2023/03/05 02:05:17;;;;;;;8.18;1.38;;;;;;;-146.25;100.00;52422.94;2095992;28;20045;-73
2023/03/05 02:06:19;;;;;;;11.55;1.90;;;;;;;-146.25;100.00;52433.06;2089838;28;25042;-73
2023/03/05 02:07:24;;;;;;;6.88;1.75;;;;;;;-146.25;100.00;52445.25;2105476;28;22642;-74
2023/03/05 02:08:26;;;;;;;7.43;1.77;;;;;;;-146.25;100.00;52400.63;2113660;28;20044;-74
2023/03/05 02:09:28;;;;;;;8.35;1.52;;;;;;;-146.25;100.00;52416.84;2113161;28;29771;-73
2023/03/05 02:10:37;;;;;;;6.10;1.75;;;;;;;-146.25;100.00;52433.06;2112982;28;34241;-74
2023/03/05 02:11:39;;;;;;;8.35;1.88;;;;;;;-146.25;100.00;52388.47;2095779;28;21860;-74
2023/03/05 02:12:42;;;;;;;7.03;1.50;;;;;;;-146.25;100.00;52416.84;2089113;28;20049;-74
2023/03/05 02:13:43;;;;;;;9.40;1.85;;;;;;;-146.25;100.00;52463.50;2104205;28;33300;-73
2023/03/05 02:14:57;;;;;;;7.05;1.80;;;;;;;-146.25;100.00;52447.28;2113005;28;29989;-74
2023/03/05 02:16:01;;;;;;;8.57;1.73;;;;;;;-146.25;100.00;52406.72;2095309;28;23450;-73
2023/03/05 02:17:03;;;;;;;5.28;1.55;;;;;;;-146.25;100.00;52445.25;2089516;28;27962;-74
2023/03/05 02:18:07;;;;;;;8.73;1.70;;;;;;;-146.25;100.00;52437.13;2105014;28;20045;-73
2023/03/05 02:19:11;;;;;;;9.88;1.63;;;;;;;-146.25;100.00;52422.94;2112631;28;35099;-73
2023/03/05 02:20:23;;;;;;;10.98;2.10;;;;;;;-146.25;100.00;52455.38;2106864;28;20033;-73
2023/03/05 02:21:46;;;;;;;6.68;1.58;;;;;;;-146.25;100.00;52435.09;2095475;28;20049;-73
2023/03/05 02:22:48;;;;;;;7.25;1.58;;;;;;;-146.25;100.00;52424.97;2090345;28;21166;-73
2023/03/05 02:23:50;;;;;;;8.23;1.70;;;;;;;-146.25;100.00;52439.16;2087859;28;20034;-73
2023/03/05 02:24:52;;;;;;;8.43;1.90;;;;;;;-146.25;100.00;52396.59;2095530;28;28548;-73
2023/03/05 02:25:56;;;;;;;4.88;1.38;;;;;;;-146.25;100.00;52431.06;2104540;28;20040;-73
2023/03/05 02:26:58;;;;;;;6.97;1.45;;;;;;;-146.25;100.00;52378.34;2104639;28;20897;-73
2023/03/05 02:28:17;;;;;;;8.07;1.67;;;;;;;-146.25;100.00;52414.84;2104838;28;24844;-74
2023/03/05 02:29:19;;;;;;;8.40;1.63;;;;;;;-146.25;100.00;52420.91;2104485;28;20143;-73
2023/03/05 02:30:21;;;;;;;6.43;1.70;;;;;;;-146.25;100.00;52418.88;2096198;28;20945;-73
2023/03/05 02:31:24;;;;;;;7.93;1.83;;;;;;;-146.25;100.00;52437.13;2095514;28;33719;-74
2023/03/05 02:32:26;;;;;;;6.90;1.58;;;;;;;-146.25;100.00;52435.09;2104473;28;34697;-74
2023/03/05 02:33:28;;;;;;;7.78;1.67;;;;;;;-146.25;100.00;52429.03;2095788;28;20037;-74
2023/03/05 02:34:30;;;;;;;7.72;1.77;;;;;;;-146.25;100.00;52402.66;2096017;28;20049;-73
2023/03/05 02:35:32;;;;;;;6.82;1.88;;;;;;;-146.25;100.00;52402.66;2104692;28;22110;-74
2023/03/05 02:36:34;;;;;;;10.52;1.70;;;;;;;-146.25;100.00;52465.53;2104760;28;26831;-73
2023/03/05 02:37:36;;;;;;;5.95;1.73;;;;;;;-146.25;100.00;52412.81;2095745;28;20127;-73
2023/03/05 02:38:43;;;;;;;5.55;2.10;;;;;;;-146.25;100.00;52418.88;2088172;28;20045;-73
2023/03/05 02:39:44;;;;;;;6.55;2.10;;;;;;;-146.25;100.00;52424.97;2087650;28;20096;-73
2023/03/05 02:40:49;;;;;;;6.20;1.45;;;;;;;-146.25;100.00;52420.91;2095930;28;20026;-73
2023/03/05 02:41:56;;;;;;;4.20;1.42;;;;;;;-146.25;100.00;52396.59;2095669;28;20045;-73
2023/03/05 02:42:58;;;;;;;8.32;1.52;;;;;;;-146.25;100.00;52394.56;2095899;28;25432;-74
2023/03/05 02:44:08;;;;;;;9.55;1.40;;;;;;;-146.25;100.00;52424.97;2095949;28;20256;-73
2023/03/05 02:45:13;;;;;;;8.07;1.50;;;;;;;-146.25;100.00;52431.06;2088483;28;21102;-73
2023/03/05 02:46:19;;;;;;;5.97;1.42;;;;;;;-146.25;100.00;52429.03;2095578;28;20864;-73
2023/03/05 02:47:21;;;;;;;9.32;1.75;;;;;;;-146.25;100.00;52416.84;2096044;28;25168;-74
2023/03/05 02:48:23;;;;;;;5.43;1.60;;;;;;;-146.25;100.00;52427.00;2104581;28;23679;-73
2023/03/05 02:49:25;;;;;;;9.23;1.90;;;;;;;-146.25;100.00;52420.91;2095741;28;20759;-73
2023/03/05 02:50:29;;;;;;;6.88;1.60;;;;;;;-146.25;100.00;52437.13;2088439;28;20041;-73
2023/03/05 02:51:31;;;;;;;11.52;1.70;;;;;;;-146.25;100.00;52433.06;2096888;28;29045;-73
2023/03/05 02:52:33;;;;;;;9.35;1.40;;;;;;;-146.25;100.00;52390.50;2096739;28;20103;-73
2023/03/05 02:53:39;;;;;;;8.07;1.77;;;;;;;-146.25;100.00;52435.09;2088988;28;20927;-73
2023/03/05 02:54:41;;;;;;;4.32;1.17;;;;;;;-146.25;100.00;52427.00;2089482;28;20864;-73
2023/03/05 02:55:46;;;;;;;8.32;1.60;;;;;;;-146.25;100.00;52390.50;2089275;28;20080;-73
2023/03/05 02:56:49;;;;;;;9.18;1.52;;;;;;;-146.25;100.00;52437.13;2089176;28;20834;-74
2023/03/05 02:57:51;;;;;;;7.88;1.35;;;;;;;-146.25;100.00;52427.00;2097274;28;22463;-74
2023/03/05 02:58:52;;;;;;;4.65;1.58;;;;;;;-146.25;100.00;52422.94;2097502;28;20034;-74
2023/03/05 02:59:54;;;;;;;12.43;1.60;;;;;;;-146.25;100.00;52445.25;2097137;28;20890;-74
2023/03/05 03:00:59;;;;;;;10.30;1.77;;;;;;;-146.25;100.00;52433.06;2103028;28;20171;-74
2023/03/05 03:02:03;;;;;;;5.55;1.33;;;;;;;-146.25;100.00;52441.19;2105714;28;20232;-73
2023/03/05 03:03:04;;;;;;;7.53;1.50;;;;;;;-146.25;100.00;52412.81;2114096;28;21182;-74
2023/03/05 03:04:06;;;;;;;7.80;1.50;;;;;;;-146.25;100.00;52412.81;2113142;28;34161;-73
2023/03/05 03:05:08;;;;;;;8.65;1.83;;;;;;;-146.25;100.00;52424.97;2114541;28;20044;-73
2023/03/05 03:06:10;;;;;;;7.03;1.48;;;;;;;-146.25;100.00;52402.66;2113719;28;36995;-73
2023/03/05 03:07:14;;;;;;;10.05;1.50;;;;;;;-146.25;100.00;52429.03;2114002;28;35788;-74
2023/03/05 03:08:15;;;;;;;6.45;1.08;;;;;;;-146.25;100.00;52416.84;2114003;28;34584;-73
2023/03/05 03:09:20;;;;;;;5.85;1.15;;;;;;;-146.25;100.00;52439.16;2113941;28;30107;-74
2023/03/05 03:10:23;;;;;;;6.63;1.23;;;;;;;-146.25;100.00;52424.97;2113849;28;33123;-73
2023/03/05 03:11:25;;;;;;;8.45;1.27;;;;;;;-146.25;100.00;52422.94;2114093;28;33557;-74
2023/03/05 03:12:27;;;;;;;6.40;1.30;;;;;;;-146.25;100.00;52437.13;2113984;28;37079;-73
2023/03/05 03:13:28;;;;;;;7.53;1.48;;;;;;;-146.25;100.00;52412.81;2113976;28;35372;-73
2023/03/05 03:14:37;;;;;;;6.93;1.48;;;;;;;-146.25;100.00;52422.94;2114888;28;21030;-73
2023/03/05 03:15:42;;;;;;;8.73;1.25;;;;;;;-146.25;100.00;52384.41;2104999;28;32986;-74
2023/03/05 03:16:43;;;;;;;7.18;1.48;;;;;;;-146.25;100.00;52453.34;2098356;28;20894;-73
2023/03/05 03:17:45;;;;;;;4.38;1.10;;;;;;;-146.25;100.00;52453.34;2105507;28;32055;-75
2023/03/05 03:18:47;;;;;;;11.32;1.23;;;;;;;-146.25;100.00;52429.03;2113954;28;31935;-74
2023/03/05 03:19:50;;;;;;;8.05;1.50;;;;;;;-146.25;100.00;52445.25;2111313;28;20166;-74
2023/03/05 03:20:54;;;;;;;6.20;1.20;;;;;;;-146.25;100.00;52406.72;2105795;28;37131;-74
2023/03/05 03:21:55;;;;;;;6.75;1.15;;;;;;;-146.25;100.00;52429.03;2105136;28;36898;-74
2023/03/05 03:23:00;;;;;;;7.95;1.35;;;;;;;-146.25;100.00;52424.97;2105430;28;34218;-74
2023/03/05 03:24:02;;;;;;;9.85;1.40;;;;;;;-146.25;100.00;52384.41;2105489;28;33862;-74
2023/03/05 03:25:04;;;;;;;6.10;1.30;;;;;;;-146.25;100.00;52427.00;2105546;28;38662;-75
2023/03/05 03:26:08;;;;;;;5.20;1.13;;;;;;;-146.25;100.00;52427.00;2105407;28;20154;-74
2023/03/05 03:27:10;;;;;;;7.28;1.05;;;;;;;-146.25;100.00;52414.84;2104774;28;36536;-74
2023/03/05 03:28:12;;;;;;;5.03;1.02;;;;;;;-146.25;100.00;52429.03;2105769;28;27280;-75
2023/03/05 03:29:13;;;;;;;4.45;0.85;;;;;;;-146.25;100.00;52443.22;2105265;28;32667;-75
2023/03/05 03:30:16;;;;;;;8.02;0.98;;;;;;;-146.25;100.00;52422.94;2105575;28;37607;-74
2023/03/05 03:31:18;;;;;;;7.35;1.15;;;;;;;-146.25;100.00;52445.25;2105888;28;20027;-74
2023/03/05 03:32:21;;;;;;;8.30;1.05;;;;;;;-146.25;100.00;52418.88;2105917;28;20856;-74
2023/03/05 03:33:23;;;;;;;6.00;0.93;;;;;;;-146.25;100.00;52437.13;2105720;28;32552;-75
2023/03/05 03:34:25;;;;;;;7.63;1.02;;;;;;;-146.25;100.00;52414.84;2105463;28;36057;-74
2023/03/05 03:35:27;;;;;;;6.63;1.10;;;;;;;-146.25;100.00;52431.06;2105896;28;20417;-75
2023/03/05 03:36:29;;;;;;;7.53;1.15;;;;;;;-146.25;100.00;52469.56;2105017;28;34257;-75
2023/03/05 03:37:33;;;;;;;6.28;1.02;;;;;;;-146.25;100.00;52429.03;2105392;28;20049;-74
2023/03/05 03:38:35;;;;;;;6.03;1.00;;;;;;;-146.25;100.00;52431.06;2105321;28;32540;-74
2023/03/05 03:39:37;;;;;;;9.65;1.10;;;;;;;-146.25;100.00;52422.94;2104995;28;33325;-75
2023/03/05 03:40:41;;;;;;;8.52;0.77;;;;;;;-146.25;100.00;52445.25;2105383;28;20051;-75
2023/03/05 03:41:46;;;;;;;8.02;1.20;;;;;;;-146.25;100.00;52449.31;2105359;28;34011;-75
2023/03/05 03:42:51;;;;;;;4.45;0.82;;;;;;;-146.25;100.00;52422.94;2105594;28;20037;-74
2023/03/05 03:43:53;;;;;;;5.32;1.30;;;;;;;-146.25;100.00;52410.78;2104979;28;30185;-74
2023/03/05 03:44:55;;;;;;;4.32;0.90;;;;;;;-146.25;100.00;52420.91;2105506;28;33815;-75
2023/03/05 03:45:59;;;;;;;5.45;1.08;;;;;;;-146.25;100.00;52433.06;2105716;28;20072;-74
2023/03/05 03:47:00;;;;;;;7.03;0.85;;;;;;;-146.25;100.00;52445.25;2105376;28;34025;-75
2023/03/05 03:48:02;;;;;;;5.57;0.70;;;;;;;-146.25;100.00;52396.59;2105287;28;32632;-75
2023/03/05 03:49:06;;;;;;;3.92;0.82;;;;;;;-146.25;100.00;52416.84;2105596;28;33449;-74
2023/03/05 03:50:08;;;;;;;5.40;0.90;;;;;;;-146.25;100.00;52429.03;2105148;28;35873;-75
2023/03/05 03:51:12;;;;;;;5.32;0.90;;;;;;;-146.25;100.00;52441.19;2105497;28;32241;-75
2023/03/05 03:52:14;;;;;;;6.75;0.93;;;;;;;-146.25;100.00;52382.38;2104627;28;35299;-74
2023/03/05 03:53:16;;;;;;;4.53;0.73;;;;;;;-146.25;100.00;52420.91;2105740;28;20056;-75
2023/03/05 03:54:18;;;;;;;7.53;0.80;;;;;;;-146.25;100.00;52439.16;2104982;28;37516;-75
2023/03/05 03:55:20;;;;;;;7.55;1.15;;;;;;;-146.25;100.00;52420.91;2105294;28;33685;-75
2023/03/05 03:56:21;;;;;;;3.58;0.85;;;;;;;-146.25;100.00;52398.59;2105263;28;37205;-75
2023/03/05 03:57:23;;;;;;;6.60;0.90;;;;;;;-146.25;100.00;52433.06;2105322;28;35430;-75
2023/03/05 03:58:25;;;;;;;11.05;1.40;;;;;;;-146.25;100.00;52433.06;2105112;28;33426;-75
2023/03/05 03:59:27;;;;;;;6.70;1.00;;;;;;;-146.25;100.00;52390.50;2096201;28;35082;-74
2023/03/05 04:00:28;;;;;;;4.35;0.93;;;;;;;-146.25;100.00;52424.97;2096106;28;34107;-74
2023/03/05 04:01:30;;;;;;;5.22;0.93;;;;;;;-146.25;100.00;52441.19;2104906;28;36476;-75
2023/03/05 04:02:32;;;;;;;4.60;0.90;;;;;;;-146.25;100.00;52378.34;2095808;28;33010;-75
2023/03/05 04:03:34;;;;;;;6.05;0.75;;;;;;;-146.25;100.00;52459.44;2088048;28;27953;-75
2023/03/05 04:04:35;;;;;;;4.55;0.80;;;;;;;-146.25;100.00;52400.63;2096368;28;34958;-75
2023/03/05 04:05:37;;;;;;;4.40;0.60;;;;;;;-146.25;100.00;52402.66;2096230;28;35492;-75
2023/03/05 04:06:40;;;;;;;6.22;0.80;;;;;;;-146.25;100.00;52424.97;2096141;28;31378;-74
2023/03/05 04:07:42;;;;;;;3.15;0.60;;;;;;;-146.25;100.00;52445.25;2105497;28;34880;-75
2023/03/05 04:08:44;;;;;;;4.90;0.90;;;;;;;-146.25;100.00;52400.63;2104830;28;36507;-75
2023/03/05 04:09:45;;;;;;;3.78;0.77;;;;;;;-146.25;100.00;52451.31;2105345;28;34147;-75
2023/03/05 04:10:47;;;;;;;6.05;0.90;;;;;;;-146.25;100.00;52418.88;2105374;28;30532;-74
2023/03/05 04:11:49;;;;;;;3.88;0.60;;;;;;;-146.25;100.00;52402.66;2104866;28;36335;-74
2023/03/05 04:12:51;;;;;;;5.00;0.80;;;;;;;-146.25;100.00;52392.53;2105266;28;34151;-74
2023/03/05 04:13:52;;;;;;;7.65;0.82;;;;;;;-146.25;100.00;52388.47;2105163;28;36406;-74
2023/03/05 04:14:54;;;;;;;4.00;0.82;;;;;;;-146.25;100.00;52431.06;2105506;28;34152;-74
2023/03/05 04:15:56;;;;;;;4.35;0.70;;;;;;;-146.25;100.00;52416.84;2105369;28;31398;-75
2023/03/05 04:16:58;;;;;;;6.75;0.80;;;;;;;-146.25;100.00;52473.63;2104995;28;32643;-74
2023/03/05 04:18:02;;;;;;;3.85;0.70;;;;;;;-146.25;100.00;52437.13;2105073;28;35599;-74
2023/03/05 04:19:04;;;;;;;8.43;0.90;;;;;;;-146.25;100.00;52451.31;2104938;28;34778;-74
2023/03/05 04:20:09;;;;;;;6.55;1.00;;;;;;;-146.25;100.00;52424.97;2096138;28;33150;-74
2023/03/05 04:21:11;;;;;;;6.45;0.93;;;;;;;-146.25;100.00;52433.06;2097336;28;20045;-74
2023/03/05 04:22:15;;;;;;;3.90;0.80;;;;;;;-146.25;100.00;52435.09;2104745;28;36535;-74
2023/03/05 04:23:17;;;;;;;8.38;0.82;;;;;;;-146.25;100.00;52416.84;2105076;28;31083;-74
2023/03/05 04:24:22;;;;;;;3.40;0.80;;;;;;;-146.25;100.00;52412.81;2104889;28;37236;-75
2023/03/05 04:25:23;;;;;;;6.60;1.20;;;;;;;-146.25;100.00;52414.84;2104856;28;31594;-74
2023/03/05 04:26:25;;;;;;;4.60;1.30;;;;;;;-146.25;100.00;52435.09;2105254;28;35051;-73
2023/03/05 04:27:27;;;;;;;3.33;0.70;;;;;;;-146.25;100.00;52414.84;2105702;28;34273;-74
2023/03/05 04:28:29;;;;;;;5.78;1.00;;;;;;;-146.25;100.00;52380.38;2105180;28;20893;-74
2023/03/05 04:29:32;;;;;;;6.25;0.88;;;;;;;-146.25;100.00;52380.38;2105184;28;33790;-75
2023/03/05 04:30:34;;;;;;;5.93;0.93;;;;;;;-146.25;100.00;52431.06;2104823;28;34265;-74
2023/03/05 04:31:35;;;;;;;4.93;1.00;;;;;;;-146.25;100.00;52433.06;2105298;28;35260;-74
2023/03/05 04:32:37;;;;;;;6.20;0.85;;;;;;;-146.25;100.00;52408.75;2105020;28;34935;-74
2023/03/05 04:33:41;;;;;;;4.55;0.90;;;;;;;-146.25;100.00;52424.97;2104484;28;36368;-74
2023/03/05 04:34:43;;;;;;;6.18;0.93;;;;;;;-146.25;100.00;52404.69;2104823;28;33121;-74
2023/03/05 04:35:45;;;;;;;6.93;1.08;;;;;;;-146.25;100.00;52392.53;2104881;28;33462;-74
2023/03/05 04:36:47;;;;;;;7.95;0.80;;;;;;;-146.25;100.00;52427.00;2105411;28;20036;-74
2023/03/05 04:37:50;;;;;;;4.68;1.08;;;;;;;-146.25;100.00;52449.31;2104810;28;34301;-74
2023/03/05 04:38:52;;;;;;;13.07;1.55;;;;;;;-146.25;100.00;52427.00;2105303;28;20051;-74
2023/03/05 04:39:54;;;;;;;9.98;1.35;;;;;;;-146.25;100.00;52429.03;2104739;28;33800;-73
2023/03/05 04:40:56;;;;;;;6.00;0.85;;;;;;;-146.25;100.00;52420.91;2104815;28;38466;-73
2023/03/05 04:41:57;;;;;;;3.97;1.17;;;;;;;-146.25;100.00;52449.31;2105696;28;20155;-73
2023/03/05 04:42:59;;;;;;;8.32;1.10;;;;;;;-146.25;100.00;52424.97;2104398;28;36426;-73
2023/03/05 04:44:01;;;;;;;7.82;1.35;;;;;;;-146.25;100.00;52433.06;2105066;28;35051;-73
2023/03/05 04:45:05;;;;;;;4.13;1.23;;;;;;;-146.25;100.00;52398.59;2105692;28;20033;-73
2023/03/05 04:46:07;;;;;;;6.00;1.42;;;;;;;-146.25;100.00;52443.22;2104008;28;36954;-73
2023/03/05 04:47:11;;;;;;;6.05;1.15;;;;;;;-146.25;100.00;52429.03;2104433;28;37683;-73